Time;durP1;ratioP1;P1;durP2;ratioP2;P2;SDS_P1;SDS_P2;PMS_P1;PMS_P2;Temp;Humidity;BMP_temperature;BMP_pressure;BME280_temperature;BME280_humidity;BME280_pressure;Samples;Min_cycle;Max_cycle;Signal;HPM_P1;HPM_P2
2022/12/22 03:28:17;;;;;;;773.03;163.47;;;8.30;99.90;;;;;;5049880;28;20271;-52
2022/12/22 03:30:45;;;;;;;1851.80;263.93;;;8.40;99.90;;;;;;5050736;28;20205;-52
2022/12/22 03:33:14;;;;;;;438.13;100.53;;;8.40;99.90;;;;;;5050367;28;20234;-52
2022/12/22 03:35:44;;;;;;;428.10;112.00;;;8.40;99.90;;;;;;5050242;28;20201;-52
2022/12/22 03:38:12;;;;;;;1346.73;248.63;;;8.40;99.90;;;;;;5051302;28;20293;-52
2022/12/22 03:40:40;;;;;;;520.03;126.50;;;8.40;99.90;;;;;;5050997;28;20297;-52
2022/12/22 03:49:08;;;;;;;1300.37;229.13;;;8.40;99.90;;;;;;5050940;28;20629;-52
2022/12/22 03:51:35;;;;;;;480.53;111.97;;;8.40;99.90;;;;;;5050271;28;20301;-53
2022/12/22 03:54:03;;;;;;;230.93;61.70;;;8.40;99.90;;;;;;5050126;28;20256;-53
2022/12/22 03:56:31;;;;;;;505.57;99.03;;;8.40;99.90;;;;;;5050538;28;20249;-54
2022/12/22 03:59:00;;;;;;;1383.30;188.93;;;8.50;99.90;;;;;;5050912;28;20206;-54
2022/12/22 04:01:28;;;;;;;1691.30;238.17;;;8.40;99.90;;;;;;5049874;28;20680;-53
2022/12/22 04:03:57;;;;;;;1478.30;230.87;;;8.40;99.90;;;;;;5050224;28;20230;-52
2022/12/22 04:06:25;;;;;;;1999.90;322.93;;;8.40;99.90;;;;;;5050198;28;20218;-52
2022/12/22 04:08:54;;;;;;;1966.73;283.47;;;8.40;99.90;;;;;;5049924;28;20291;-53
2022/12/22 04:14:07;;;;;;;1595.37;268.07;;;8.40;99.90;;;;;;5049923;28;20288;-52
2022/12/22 04:16:35;;;;;;;727.97;134.33;;;8.40;99.90;;;;;;5050127;28;20241;-52
2022/12/22 04:19:06;;;;;;;771.10;127.57;;;8.30;99.90;;;;;;5050205;28;20260;-52
2022/12/22 04:21:34;;;;;;;1436.17;230.00;;;8.40;99.90;;;;;;5050127;28;20206;-52
2022/12/22 04:24:03;;;;;;;1988.90;289.50;;;8.40;99.90;;;;;;5049279;28;20240;-52
2022/12/22 04:26:31;;;;;;;562.87;119.87;;;8.40;99.90;;;;;;5050422;28;20213;-52
2022/12/22 04:29:00;;;;;;;1927.40;279.80;;;8.40;99.90;;;;;;5049637;28;20202;-52
2022/12/22 04:31:28;;;;;;;713.90;112.23;;;8.40;99.90;;;;;;5049980;28;20209;-52
2022/12/22 04:33:56;;;;;;;1109.57;207.87;;;8.40;99.90;;;;;;5046492;28;20225;-51
2022/12/22 04:36:25;;;;;;;1401.47;217.90;;;8.50;99.90;;;;;;5050297;28;20275;-52
2022/12/22 04:38:53;;;;;;;1257.60;204.57;;;8.40;99.90;;;;;;5050186;28;20288;-51
2022/12/22 04:41:22;;;;;;;1877.03;259.07;;;8.40;99.90;;;;;;5050425;28;20286;-52
2022/12/22 04:43:50;;;;;;;318.40;75.93;;;8.40;99.90;;;;;;5049192;28;20925;-51
2022/12/22 04:46:18;;;;;;;1999.90;280.50;;;8.50;99.90;;;;;;5049560;28;20288;-52
2022/12/22 04:48:46;;;;;;;709.63;129.40;;;8.50;99.90;;;;;;5049975;28;20233;-52
2022/12/22 04:51:14;;;;;;;373.67;79.87;;;8.50;99.90;;;;;;5049676;28;20586;-52
2022/12/22 04:53:43;;;;;;;1868.20;266.70;;;8.50;99.90;;;;;;5048851;28;20260;-52
2022/12/22 04:56:11;;;;;;;949.43;142.37;;;8.50;99.90;;;;;;5039595;28;20203;-52
2022/12/22 04:58:39;;;;;;;1303.93;142.50;;;8.50;99.90;;;;;;5043516;28;20206;-52
2022/12/22 05:01:10;;;;;;;1203.83;178.87;;;8.40;99.90;;;;;;5049285;28;20197;-52
2022/12/22 05:03:38;;;;;;;1552.03;227.70;;;8.40;99.90;;;;;;5048872;28;20234;-54
2022/12/22 05:06:07;;;;;;;847.63;134.30;;;8.50;99.90;;;;;;5049339;28;20214;-52
2022/12/22 05:08:35;;;;;;;923.90;114.37;;;8.50;99.90;;;;;;5049389;28;20259;-52
2022/12/22 05:11:05;;;;;;;618.20;91.70;;;8.40;99.90;;;;;;5048746;28;20257;-52
2022/12/22 05:13:33;;;;;;;1139.87;189.30;;;8.50;99.90;;;;;;5048124;28;20230;-52
2022/12/22 05:16:06;;;;;;;1968.83;352.90;;;8.40;99.90;;;;;;5049471;28;20201;-52
2022/12/22 05:18:34;;;;;;;875.53;138.37;;;8.50;99.90;;;;;;5049107;28;20205;-52
2022/12/22 05:21:04;;;;;;;646.80;113.90;;;8.50;99.90;;;;;;5048994;28;20674;-52
2022/12/22 05:23:32;;;;;;;41.03;27.47;;;8.50;99.90;;;;;;5048258;28;20233;-52
2022/12/22 05:26:00;;;;;;;498.37;115.77;;;8.50;99.90;;;;;;5049276;28;20244;-52
2022/12/22 05:28:30;;;;;;;361.97;69.43;;;8.50;99.90;;;;;;5049306;28;20213;-53
2022/12/22 05:31:03;;;;;;;354.13;103.37;;;8.50;99.90;;;;;;5047409;28;20308;-52
2022/12/22 05:33:31;;;;;;;466.53;109.57;;;8.60;99.90;;;;;;5047365;28;20230;-52
2022/12/22 05:36:00;;;;;;;547.63;63.17;;;8.60;99.90;;;;;;5047182;28;20201;-52
2022/12/22 05:38:28;;;;;;;1135.37;229.77;;;8.60;99.90;;;;;;5049044;28;20233;-52
2022/12/22 05:40:56;;;;;;;171.90;43.93;;;8.60;99.90;;;;;;5048783;28;20210;-53
2022/12/22 05:43:32;;;;;;;652.07;101.50;;;8.60;99.90;;;;;;5048497;28;20232;-52
2022/12/22 05:46:02;;;;;;;1317.77;222.63;;;8.60;99.90;;;;;;5048838;28;20242;-52
2022/12/22 05:48:31;;;;;;;1713.00;206.40;;;8.60;99.90;;;;;;5048706;28;20806;-52
2022/12/22 05:51:06;;;;;;;1596.70;271.80;;;8.60;99.90;;;;;;5048610;28;20232;-52
2022/12/22 05:53:34;;;;;;;498.00;82.43;;;8.60;99.90;;;;;;5048155;28;20722;-52
2022/12/22 05:56:02;;;;;;;629.27;106.07;;;8.60;99.90;;;;;;5048520;28;20670;-52
2022/12/22 05:58:32;;;;;;;1257.27;136.33;;;8.60;99.90;;;;;;5048471;28;20293;-52
2022/12/22 06:01:01;;;;;;;1030.60;159.40;;;8.70;99.90;;;;;;5048845;28;20203;-53
2022/12/22 06:03:30;;;;;;;493.80;89.73;;;8.60;99.90;;;;;;5048152;28;20250;-53
2022/12/22 06:05:59;;;;;;;1682.77;251.90;;;8.60;99.90;;;;;;5048554;28;20320;-50
2022/12/22 06:08:28;;;;;;;1999.90;319.87;;;8.60;99.90;;;;;;5048354;28;20222;-53
2022/12/22 06:10:57;;;;;;;1999.90;452.60;;;8.60;99.90;;;;;;5048583;28;20272;-52
2022/12/22 06:13:26;;;;;;;1783.57;202.43;;;8.60;99.90;;;;;;5042753;28;20226;-53
2022/12/22 06:15:55;;;;;;;542.40;101.37;;;8.70;99.90;;;;;;5048331;28;20256;-52
2022/12/22 06:18:23;;;;;;;745.07;125.00;;;8.60;99.90;;;;;;5048511;28;20213;-52
2022/12/22 06:20:53;;;;;;;1999.90;298.03;;;8.60;99.90;;;;;;5048239;28;20243;-51
2022/12/22 06:23:21;;;;;;;823.10;157.17;;;8.70;99.90;;;;;;5047813;28;20233;-53
2022/12/22 06:25:56;;;;;;;1014.33;171.63;;;8.60;99.90;;;;;;5035044;28;20233;-52
2022/12/22 06:28:24;;;;;;;1999.63;312.27;;;8.70;99.90;;;;;;5048431;28;20209;-51
2022/12/22 06:30:54;;;;;;;948.97;158.33;;;8.60;99.90;;;;;;5048206;28;20706;-53
2022/12/22 06:33:23;;;;;;;1708.10;204.70;;;8.70;99.90;;;;;;5047897;28;20232;-50
2022/12/22 06:35:51;;;;;;;1837.13;295.47;;;8.70;99.90;;;;;;5046874;28;20271;-51
2022/12/22 06:38:26;;;;;;;417.43;102.70;;;8.70;99.90;;;;;;5048236;28;20296;-51
2022/12/22 06:40:55;;;;;;;245.30;44.30;;;8.70;99.90;;;;;;5047993;28;20298;-53
2022/12/22 06:43:22;;;;;;;997.33;176.83;;;8.70;99.90;;;;;;5046150;28;20320;-52
2022/12/22 06:45:50;;;;;;;1700.93;240.00;;;8.70;99.90;;;;;;5040976;28;20212;-52
2022/12/22 06:48:20;;;;;;;849.37;169.97;;;8.70;99.90;;;;;;5041758;28;20213;-51
2022/12/22 06:50:48;;;;;;;1018.03;175.23;;;8.70;99.90;;;;;;5051382;28;20261;-52
2022/12/22 06:53:17;;;;;;;912.53;157.50;;;8.70;99.90;;;;;;5050858;28;20222;-52
2022/12/22 06:55:45;;;;;;;1056.87;260.80;;;8.70;99.90;;;;;;5051383;28;20264;-52
2022/12/22 06:58:13;;;;;;;1999.90;337.47;;;8.70;99.90;;;;;;5043644;28;20627;-53
2022/12/22 07:00:42;;;;;;;129.93;51.60;;;8.70;99.90;;;;;;5050873;28;20744;-51
2022/12/22 07:03:10;;;;;;;1999.90;320.00;;;8.70;99.90;;;;;;5050386;28;20757;-51
2022/12/22 07:05:40;;;;;;;1134.00;158.00;;;8.70;99.90;;;;;;5051376;28;20217;-52
2022/12/22 07:08:08;;;;;;;1999.90;428.20;;;8.70;99.90;;;;;;5050851;28;20213;-50
2022/12/22 07:13:22;;;;;;;628.37;112.13;;;8.70;99.90;;;;;;5049731;28;20225;-53
2022/12/22 07:15:51;;;;;;;1999.90;344.73;;;8.70;99.90;;;;;;5049620;28;20633;-52
2022/12/22 07:18:29;;;;;;;517.97;88.87;;;8.70;99.90;;;;;;5051368;28;20207;-52
2022/12/22 07:20:59;;;;;;;1288.37;173.23;;;8.70;99.90;;;;;;5047971;28;20388;-52
2022/12/22 07:23:28;;;;;;;1921.60;234.80;;;8.70;99.90;;;;;;5050152;28;20237;-52
2022/12/22 07:25:57;;;;;;;1999.90;405.37;;;8.70;99.90;;;;;;5051296;28;20687;-53
2022/12/22 07:28:25;;;;;;;815.27;121.93;;;8.70;99.90;;;;;;5051012;28;20213;-52
2022/12/22 07:30:54;;;;;;;1171.40;186.73;;;8.80;99.90;;;;;;5051158;28;20261;-51
2022/12/22 07:33:23;;;;;;;469.93;129.40;;;8.80;99.90;;;;;;5050165;28;20279;-52
2022/12/22 07:36:06;;;;;;;1999.90;286.00;;;8.80;99.90;;;;;;5050759;28;20233;-53
2022/12/22 07:38:36;;;;;;;1999.90;409.83;;;8.80;99.90;;;;;;5051128;28;20238;-53
2022/12/22 07:42:43;;;;;;;1999.90;391.77;;;8.90;99.90;;;;;;5051097;28;20209;-53
2022/12/22 07:43:54;;;;;;;1999.90;477.17;;;8.90;99.90;;;;;;5049884;28;20262;-51
2022/12/22 07:46:23;;;;;;;1999.90;435.27;;;8.90;99.90;;;;;;5050920;28;20209;-52
2022/12/22 07:51:40;;;;;;;1306.43;253.13;;;8.90;99.90;;;;;;5050623;28;20260;-52
2022/12/22 07:54:10;;;;;;;1957.47;279.60;;;8.90;99.90;;;;;;5050698;28;20206;-52
2022/12/22 07:56:38;;;;;;;1999.90;326.83;;;9.00;99.90;;;;;;5049877;28;20229;-52
2022/12/22 07:59:06;;;;;;;957.43;163.83;;;9.00;99.90;;;;;;5050154;28;20213;-52
2022/12/22 08:01:34;;;;;;;1863.73;262.67;;;9.00;99.90;;;;;;5050474;28;20244;-52
2022/12/22 08:04:03;;;;;;;1999.90;494.17;;;9.00;99.90;;;;;;5050108;28;20237;-52
2022/12/22 08:06:32;;;;;;;1999.90;316.40;;;9.00;99.90;;;;;;5050350;28;20205;-53
2022/12/22 08:09:03;;;;;;;1834.90;258.90;;;9.00;99.90;;;;;;5050185;28;20293;-51
2022/12/22 08:11:31;;;;;;;560.13;81.70;;;9.00;99.90;;;;;;5050311;28;20837;-51
2022/12/22 08:13:59;;;;;;;1999.90;386.30;;;9.10;99.90;;;;;;5049490;28;20736;-53
2022/12/22 08:16:29;;;;;;;1931.00;266.10;;;9.30;99.90;;;;;;5050190;28;20204;-52
2022/12/22 08:18:57;;;;;;;1144.57;137.07;;;9.30;99.90;;;;;;5050414;28;20260;-52
2022/12/22 08:21:25;;;;;;;1999.90;296.00;;;9.20;99.90;;;;;;5049621;28;20745;-52
2022/12/22 08:23:53;;;;;;;1016.03;148.97;;;9.20;99.90;;;;;;5048994;28;20252;-53
2022/12/22 08:26:26;;;;;;;1437.33;264.57;;;9.20;99.90;;;;;;5050234;28;20233;-52
2022/12/22 08:28:58;;;;;;;1877.87;263.17;;;9.20;99.90;;;;;;5037094;28;20246;-51
2022/12/22 08:31:28;;;;;;;1447.10;209.13;;;9.20;99.90;;;;;;5049554;28;20709;-52
2022/12/22 08:33:58;;;;;;;617.20;114.10;;;9.20;99.90;;;;;;5034864;28;21464;-52
2022/12/22 08:36:27;;;;;;;928.27;159.77;;;9.20;99.90;;;;;;5048320;28;20209;-52
2022/12/22 08:38:56;;;;;;;1231.40;160.33;;;9.20;99.90;;;;;;5049151;28;20275;-52
2022/12/22 08:44:07;;;;;;;1124.00;161.97;;;9.20;99.90;;;;;;5048523;28;20241;-51
2022/12/22 08:46:35;;;;;;;1057.93;189.20;;;9.20;99.90;;;;;;5049159;28;20235;-51
2022/12/22 08:49:04;;;;;;;1606.13;232.90;;;9.20;99.90;;;;;;5049219;28;20199;-53
2022/12/22 08:51:32;;;;;;;529.80;90.83;;;9.20;99.90;;;;;;5049454;28;20585;-52
2022/12/22 08:54:00;;;;;;;1079.30;116.77;;;9.20;99.90;;;;;;5048728;28;20225;-52
2022/12/22 08:56:33;;;;;;;663.27;133.70;;;9.20;99.90;;;;;;5049693;28;20575;-50
2022/12/22 08:59:04;;;;;;;475.40;98.03;;;9.30;99.90;;;;;;5049388;28;20289;-52
2022/12/22 09:01:33;;;;;;;661.17;152.50;;;9.20;99.90;;;;;;5049488;28;20206;-52
2022/12/22 09:04:02;;;;;;;879.90;171.50;;;9.20;99.90;;;;;;5048130;28;20233;-52
2022/12/22 09:06:31;;;;;;;885.07;109.40;;;9.20;99.90;;;;;;5049514;28;20241;-51
2022/12/22 09:09:10;;;;;;;411.73;62.20;;;9.20;99.90;;;;;;5048975;28;20279;-52
2022/12/22 09:11:40;;;;;;;950.07;185.13;;;9.20;99.90;;;;;;5048599;28;20217;-52
2022/12/22 09:14:10;;;;;;;389.70;92.60;;;9.10;99.90;;;;;;5048867;28;20206;-52
2022/12/22 09:16:39;;;;;;;984.33;128.23;;;9.20;99.90;;;;;;5049170;28;20235;-52
2022/12/22 09:19:08;;;;;;;289.03;71.20;;;9.20;99.90;;;;;;5049366;28;20520;-52
2022/12/22 09:21:36;;;;;;;706.33;105.00;;;9.20;99.90;;;;;;5035745;28;20222;-54
2022/12/22 09:24:06;;;;;;;858.23;136.17;;;9.20;99.90;;;;;;5048963;28;20233;-51
2022/12/22 09:26:34;;;;;;;1864.63;309.47;;;9.30;99.90;;;;;;5049308;28;20296;-52
2022/12/22 09:29:04;;;;;;;317.37;80.77;;;9.40;99.90;;;;;;5049283;28;20279;-51
2022/12/22 09:31:32;;;;;;;48.20;19.70;;;9.50;99.90;;;;;;5049373;28;20209;-51
2022/12/22 09:34:01;;;;;;;95.97;22.37;;;9.50;99.90;;;;;;5047892;28;20279;-52
2022/12/22 09:36:32;;;;;;;95.63;26.23;;;9.60;99.90;;;;;;5048206;28;20209;-52
2022/12/22 09:39:05;;;;;;;269.57;65.47;;;9.60;99.90;;;;;;5049601;28;20202;-51
2022/12/22 09:41:36;;;;;;;180.47;44.97;;;9.70;99.90;;;;;;5048216;28;20214;-52
2022/12/22 09:44:12;;;;;;;327.77;64.57;;;9.70;99.90;;;;;;5048543;28;20400;-52
2022/12/22 09:46:41;;;;;;;160.57;41.67;;;9.80;99.90;;;;;;5048929;28;20233;-52
2022/12/22 09:49:14;;;;;;;107.53;31.10;;;9.90;99.90;;;;;;5048716;28;20636;-51
2022/12/22 09:51:44;;;;;;;137.17;32.03;;;10.00;99.90;;;;;;5048356;28;20919;-52
2022/12/22 09:54:14;;;;;;;53.83;25.47;;;10.10;99.90;;;;;;5048912;28;20292;-52
2022/12/22 09:56:42;;;;;;;462.80;96.17;;;10.20;99.90;;;;;;5046402;28;20757;-52
2022/12/22 09:59:15;;;;;;;324.57;76.77;;;10.30;99.90;;;;;;5046871;28;20206;-52
2022/12/22 10:01:57;;;;;;;1020.23;178.20;;;10.40;99.90;;;;;;5048697;28;20202;-52
2022/12/22 10:04:38;;;;;;;59.97;18.60;;;10.50;99.90;;;;;;5047807;28;20627;-52
2022/12/22 10:07:16;;;;;;;230.97;38.93;;;10.70;99.90;;;;;;5048700;28;20205;-52
2022/12/22 10:09:44;;;;;;;816.77;138.80;;;10.80;99.90;;;;;;5048977;28;20267;-51
2022/12/22 10:12:22;;;;;;;269.63;59.33;;;10.90;99.90;;;;;;5048111;28;20291;-52
2022/12/22 10:14:53;;;;;;;821.53;106.33;;;10.90;99.90;;;;;;5047607;28;20248;-52
2022/12/22 10:17:24;;;;;;;802.67;120.17;;;11.00;99.90;;;;;;5048466;28;20213;-51
2022/12/22 10:19:54;;;;;;;999.50;204.30;;;10.90;99.90;;;;;;5048604;28;20201;-51
2022/12/22 10:22:34;;;;;;;374.93;79.87;;;10.80;99.90;;;;;;5048725;28;20305;-53
2022/12/22 10:25:05;;;;;;;375.40;78.27;;;10.70;99.90;;;;;;5049921;28;20202;-53
2022/12/22 10:27:36;;;;;;;154.10;39.77;;;10.70;99.90;;;;;;5043039;28;20199;-52
2022/12/22 10:30:22;;;;;;;197.53;61.23;;;10.80;99.90;;;;;;5050267;28;20205;-52
2022/12/22 10:33:02;;;;;;;821.73;182.90;;;10.90;99.90;;;;;;5051826;28;20263;-51
2022/12/22 10:35:44;;;;;;;926.20;169.40;;;11.00;99.90;;;;;;5051626;28;20205;-53
2022/12/22 10:38:19;;;;;;;1450.63;319.97;;;11.10;99.90;;;;;;5051690;28;20288;-53
2022/12/22 10:40:51;;;;;;;265.30;65.57;;;11.10;99.90;;;;;;5038242;28;20217;-53
2022/12/22 10:43:31;;;;;;;244.67;38.53;;;11.00;99.90;;;;;;5050903;28;20229;-53
2022/12/22 10:46:02;;;;;;;423.97;47.33;;;11.00;99.90;;;;;;5051909;28;20320;-52
2022/12/22 10:48:33;;;;;;;579.20;86.33;;;10.90;99.90;;;;;;5051501;28;20682;-53
2022/12/22 10:51:02;;;;;;;522.00;116.33;;;10.80;99.90;;;;;;5049660;28;20206;-52
2022/12/22 10:53:42;;;;;;;493.00;114.60;;;10.70;99.90;;;;;;5050937;28;20229;-52
2022/12/22 10:56:23;;;;;;;177.33;51.03;;;10.70;99.90;;;;;;5039411;28;20202;-53
2022/12/22 10:58:54;;;;;;;191.57;20.37;;;10.70;99.90;;;;;;5051406;28;20621;-52
2022/12/22 11:01:30;;;;;;;99.30;26.80;;;10.70;99.90;;;;;;5051620;28;20245;-53
2022/12/22 11:04:15;;;;;;;349.57;82.77;;;10.70;99.90;;;;;;5051114;28;20236;-52
2022/12/22 11:06:44;;;;;;;273.63;59.27;;;10.70;99.90;;;;;;5051390;28;20209;-53
2022/12/22 11:09:13;;;;;;;19.43;13.53;;;10.60;99.90;;;;;;5049086;28;20295;-52
2022/12/22 11:12:05;;;;;;;17.70;12.70;;;10.60;99.90;;;;;;5051285;28;20312;-52
2022/12/22 11:14:46;;;;;;;504.47;123.77;;;10.70;99.90;;;;;;5050816;28;20226;-53
2022/12/22 11:17:22;;;;;;;169.97;42.23;;;10.60;99.90;;;;;;5051486;28;20317;-52
2022/12/22 11:20:03;;;;;;;636.47;136.43;;;10.60;99.90;;;;;;5050573;28;20255;-51
2022/12/22 11:22:38;;;;;;;22.60;13.77;;;10.60;99.90;;;;;;5049709;28;20312;-52
2022/12/22 11:25:23;;;;;;;1512.83;187.90;;;10.60;99.90;;;;;;5051300;28;20233;-52
2022/12/22 11:28:06;;;;;;;142.30;30.17;;;10.60;99.90;;;;;;5050520;28;20255;-53
2022/12/22 11:30:44;;;;;;;645.33;132.23;;;10.60;99.90;;;;;;5037134;28;20288;-52
2022/12/22 11:33:36;;;;;;;103.10;28.57;;;10.50;99.90;;;;;;5050145;28;20320;-53
2022/12/22 11:36:08;;;;;;;298.23;68.23;;;10.50;99.90;;;;;;5048310;28;20209;-52
2022/12/22 11:38:48;;;;;;;408.90;76.97;;;10.50;99.90;;;;;;5043271;28;20202;-52
2022/12/22 11:41:34;;;;;;;636.73;158.13;;;10.50;99.90;;;;;;5050530;28;20245;-53
2022/12/22 11:44:23;;;;;;;486.63;123.00;;;10.50;99.90;;;;;;5050277;28;20189;-52
2022/12/22 11:46:57;;;;;;;77.90;20.03;;;10.60;99.90;;;;;;5050890;28;20255;-52
2022/12/22 11:49:39;;;;;;;74.10;25.73;;;10.60;99.90;;;;;;5050727;28;20213;-51
2022/12/22 11:52:22;;;;;;;13.43;12.07;;;10.60;99.90;;;;;;5049204;28;20730;-53
2022/12/22 11:55:24;;;;;;;80.80;33.13;;;10.60;99.90;;;;;;5044013;28;20206;-53
2022/12/22 11:58:05;;;;;;;344.77;83.47;;;10.60;99.90;;;;;;5027949;28;20571;-53
2022/12/22 12:00:42;;;;;;;15.20;13.60;;;10.60;99.90;;;;;;5050215;28;20240;-52
2022/12/22 12:03:49;;;;;;;317.97;79.03;;;10.70;99.90;;;;;;5050122;28;20226;-52
2022/12/22 12:06:28;;;;;;;533.20;177.53;;;10.70;99.90;;;;;;5036780;28;20206;-52
2022/12/22 12:09:12;;;;;;;310.70;64.80;;;10.70;99.90;;;;;;5050088;28;20307;-52
2022/12/22 12:11:47;;;;;;;908.43;233.60;;;10.70;99.90;;;;;;5050144;28;20301;-53
2022/12/22 12:14:24;;;;;;;150.77;44.53;;;10.70;99.90;;;;;;5049196;28;20256;-53
2022/12/22 12:16:58;;;;;;;42.37;17.83;;;10.70;99.90;;;;;;5049884;28;20212;-52
2022/12/22 12:19:48;;;;;;;470.33;99.93;;;10.70;99.90;;;;;;5048757;28;20206;-52
2022/12/22 12:22:32;;;;;;;442.97;80.43;;;10.80;99.90;;;;;;5049448;28;20233;-50
2022/12/22 12:25:01;;;;;;;709.20;146.80;;;10.80;99.90;;;;;;5042190;28;20728;-53
2022/12/22 12:27:41;;;;;;;188.57;36.83;;;10.90;99.90;;;;;;5048894;28;20289;-53
2022/12/22 12:30:14;;;;;;;564.33;78.57;;;10.90;99.90;;;;;;5048755;28;20221;-52
2022/12/22 12:33:07;;;;;;;34.60;17.50;;;10.90;99.90;;;;;;5046370;28;20230;-52
2022/12/22 12:35:44;;;;;;;196.80;53.10;;;10.90;99.90;;;;;;5047664;28;20213;-53
2022/12/22 12:38:21;;;;;;;216.57;34.70;;;10.90;99.90;;;;;;5049167;28;20205;-53
2022/12/22 12:41:20;;;;;;;615.43;144.90;;;10.90;99.90;;;;;;5049725;28;20213;-52
2022/12/22 12:43:50;;;;;;;435.70;91.77;;;10.90;99.90;;;;;;5048464;28;20332;-53
2022/12/22 12:46:44;;;;;;;32.50;20.07;;;10.80;99.90;;;;;;5049127;28;20772;-53
2022/12/22 12:49:48;;;;;;;344.93;69.63;;;10.80;99.90;;;;;;5037674;28;20605;-52
2022/12/22 12:52:16;;;;;;;467.97;120.23;;;10.70;99.90;;;;;;5025781;28;20217;-52
2022/12/22 12:54:46;;;;;;;90.73;31.10;;;10.70;99.90;;;;;;5048582;28;20256;-53
2022/12/22 12:57:29;;;;;;;48.97;21.17;;;10.70;99.90;;;;;;5048878;28;20313;-52
2022/12/22 12:59:58;;;;;;;27.73;17.17;;;10.70;99.90;;;;;;5048958;28;20678;-52
2022/12/22 13:02:37;;;;;;;916.63;252.67;;;10.60;99.90;;;;;;5048748;28;20663;-52
2022/12/22 13:05:32;;;;;;;32.07;19.80;;;10.60;99.90;;;;;;5048889;28;20646;-53
2022/12/22 13:08:21;;;;;;;569.90;178.50;;;10.50;99.90;;;;;;5037988;28;20225;-52
2022/12/22 13:11:20;;;;;;;378.50;76.40;;;10.50;99.90;;;;;;5048920;28;20255;-52
2022/12/22 13:14:10;;;;;;;166.13;55.40;;;10.50;99.90;;;;;;5047982;28;20782;-52
2022/12/22 13:16:39;;;;;;;42.10;21.87;;;10.40;99.90;;;;;;5049107;28;20216;-52
2022/12/22 13:19:26;;;;;;;860.27;218.73;;;10.50;99.90;;;;;;5048463;28;20217;-53
2022/12/22 13:21:56;;;;;;;363.77;116.50;;;10.50;99.90;;;;;;5041783;28;20201;-52
2022/12/22 13:24:29;;;;;;;276.73;76.40;;;10.50;99.90;;;;;;5040376;28;20237;-51
2022/12/22 13:27:03;;;;;;;1015.93;219.10;;;10.50;99.90;;;;;;5046767;28;20255;-52
2022/12/22 13:29:42;;;;;;;158.87;48.93;;;10.50;99.90;;;;;;5048505;28;20674;-53
2022/12/22 13:32:24;;;;;;;98.67;41.43;;;10.50;99.90;;;;;;5047877;28;20280;-53
2022/12/22 13:35:04;;;;;;;102.87;26.03;;;10.40;99.90;;;;;;5048580;28;20214;-52
2022/12/22 13:37:53;;;;;;;39.47;18.43;;;10.50;99.90;;;;;;5048218;28;20557;-53
2022/12/22 13:40:23;;;;;;;701.03;205.30;;;10.40;99.90;;;;;;5047638;28;20221;-53
2022/12/22 13:42:53;;;;;;;1001.60;272.67;;;10.40;99.90;;;;;;5047293;28;20587;-52
2022/12/22 13:45:32;;;;;;;225.67;52.87;;;10.40;99.90;;;;;;5048406;28;20229;-53
2022/12/22 13:48:06;;;;;;;407.50;95.57;;;10.40;99.90;;;;;;5048570;28;20216;-53
2022/12/22 13:50:37;;;;;;;1149.37;177.87;;;10.40;99.90;;;;;;5048260;28;20716;-54
2022/12/22 13:53:08;;;;;;;1117.33;267.23;;;10.40;99.90;;;;;;5046980;28;20264;-53
2022/12/22 13:55:37;;;;;;;1986.00;344.20;;;10.30;99.90;;;;;;5047223;28;20247;-53
2022/12/22 13:58:22;;;;;;;417.97;71.07;;;10.30;99.90;;;;;;5050078;28;20205;-53
2022/12/22 14:01:03;;;;;;;333.87;77.20;;;10.30;99.90;;;;;;5051329;28;20863;-52
2022/12/22 14:03:31;;;;;;;874.00;153.63;;;10.30;99.90;;;;;;5051763;28;20229;-52
2022/12/22 14:06:28;;;;;;;992.67;186.70;;;10.30;99.90;;;;;;5039737;28;20553;-53
2022/12/22 14:09:10;;;;;;;637.40;109.07;;;10.20;99.90;;;;;;5051726;28;20252;-53
2022/12/22 14:11:39;;;;;;;141.93;49.87;;;10.20;99.90;;;;;;5052056;28;20262;-52
2022/12/22 14:14:19;;;;;;;156.33;63.97;;;10.20;99.90;;;;;;5051810;28;20287;-52
2022/12/22 14:16:50;;;;;;;1122.30;222.17;;;10.10;99.90;;;;;;5051607;28;20205;-53
2022/12/22 14:19:21;;;;;;;148.20;44.10;;;10.00;99.90;;;;;;5051727;28;20817;-52
2022/12/22 14:21:55;;;;;;;1333.13;255.70;;;9.90;99.90;;;;;;5051589;28;20678;-54
2022/12/22 14:24:26;;;;;;;1999.90;386.20;;;9.90;99.90;;;;;;5051677;28;20287;-53
2022/12/22 14:26:58;;;;;;;210.53;66.77;;;9.90;99.90;;;;;;5051061;28;20201;-52
2022/12/22 14:29:28;;;;;;;510.33;73.47;;;9.90;99.90;;;;;;5051605;28;20236;-52
2022/12/22 14:32:00;;;;;;;341.60;97.33;;;9.90;99.90;;;;;;5051376;28;20209;-52
2022/12/22 14:34:30;;;;;;;1093.03;252.10;;;9.80;99.90;;;;;;5049425;28;20223;-53
2022/12/22 14:37:00;;;;;;;584.93;122.37;;;9.80;99.90;;;;;;5048084;28;20205;-52
2022/12/22 14:39:30;;;;;;;1492.37;299.03;;;9.80;99.90;;;;;;5040594;28;20641;-53
2022/12/22 14:42:00;;;;;;;299.80;92.37;;;9.80;99.90;;;;;;5045731;28;20218;-52
2022/12/22 14:44:30;;;;;;;381.33;97.83;;;9.80;99.90;;;;;;5040952;28;20218;-53
2022/12/22 14:47:14;;;;;;;30.90;24.47;;;9.80;99.90;;;;;;5047299;28;20209;-52
2022/12/22 14:49:51;;;;;;;194.00;83.67;;;9.80;99.90;;;;;;5049314;28;20241;-53
2022/12/22 14:52:24;;;;;;;146.23;69.63;;;9.80;99.90;;;;;;5050656;28;20221;-52
2022/12/22 14:54:54;;;;;;;74.17;34.33;;;9.80;99.90;;;;;;5050840;28;20599;-52
2022/12/22 14:57:30;;;;;;;976.57;272.67;;;9.70;99.90;;;;;;5051108;28;20519;-53
2022/12/22 15:00:01;;;;;;;407.33;113.90;;;9.60;99.90;;;;;;5050606;28;20315;-52
2022/12/22 15:02:33;;;;;;;273.33;95.20;;;9.50;99.90;;;;;;5049889;28;20225;-52
2022/12/22 15:05:25;;;;;;;244.60;80.17;;;9.50;99.90;;;;;;5050540;28;20201;-52
2022/12/22 15:07:55;;;;;;;305.40;101.57;;;9.40;99.90;;;;;;5044707;28;20695;-53
2022/12/22 15:10:39;;;;;;;542.87;167.20;;;9.30;99.90;;;;;;5048183;28;20220;-53
2022/12/22 15:13:15;;;;;;;111.07;43.30;;;9.30;99.90;;;;;;5050577;28;20230;-52
2022/12/22 15:15:43;;;;;;;220.70;87.73;;;9.30;99.90;;;;;;5050040;28;20357;-51
2022/12/22 15:18:14;;;;;;;32.57;21.17;;;9.30;99.90;;;;;;5050721;28;20217;-50
2022/12/22 15:20:43;;;;;;;254.90;44.57;;;9.30;99.90;;;;;;5050375;28;20198;-51
2022/12/22 15:23:15;;;;;;;514.50;131.27;;;9.30;99.90;;;;;;5048019;28;20225;-52
2022/12/22 15:25:44;;;;;;;111.00;46.17;;;9.30;99.90;;;;;;5040113;28;20202;-51
2022/12/22 15:28:13;;;;;;;1028.63;285.83;;;9.30;99.90;;;;;;5049947;28;20737;-52
2022/12/22 15:30:42;;;;;;;191.67;76.57;;;9.30;99.90;;;;;;5051027;28;20668;-51
2022/12/22 15:33:14;;;;;;;582.87;118.00;;;9.20;99.90;;;;;;5049430;28;20237;-52
2022/12/22 15:35:44;;;;;;;301.47;98.73;;;9.20;99.90;;;;;;5049567;28;20745;-52
2022/12/22 15:38:14;;;;;;;64.63;28.00;;;9.20;99.90;;;;;;5050925;28;20215;-51
2022/12/22 15:40:42;;;;;;;1043.20;222.17;;;9.20;99.90;;;;;;5050810;28;20214;-52
2022/12/22 15:43:11;;;;;;;168.67;66.10;;;9.00;99.90;;;;;;5050390;28;20668;-52
2022/12/22 15:45:59;;;;;;;351.13;136.33;;;9.00;99.90;;;;;;5050634;28;20212;-52
2022/12/22 15:48:32;;;;;;;216.00;71.67;;;9.00;99.90;;;;;;5049614;28;20214;-51
2022/12/22 15:51:02;;;;;;;35.53;24.50;;;8.90;99.90;;;;;;5038127;28;20574;-52
2022/12/22 15:53:31;;;;;;;166.87;69.13;;;8.70;99.90;;;;;;5040560;28;20746;-51
2022/12/22 15:56:00;;;;;;;37.57;28.63;;;8.60;99.90;;;;;;5037143;28;20218;-53
2022/12/22 15:58:32;;;;;;;49.80;29.20;;;8.50;99.90;;;;;;5050094;28;20426;-52
2022/12/22 16:01:00;;;;;;;42.87;28.70;;;8.50;99.90;;;;;;5050375;28;20240;-52
2022/12/22 16:03:29;;;;;;;55.20;40.60;;;8.40;99.90;;;;;;5049796;28;20571;-51
2022/12/22 16:05:59;;;;;;;38.90;26.73;;;8.30;99.90;;;;;;5049710;28;20705;-53
2022/12/22 16:08:30;;;;;;;35.13;29.63;;;8.30;99.90;;;;;;5050580;28;20215;-52
2022/12/22 16:10:58;;;;;;;99.10;46.90;;;8.30;99.90;;;;;;5049825;28;20213;-51
2022/12/22 16:13:28;;;;;;;196.10;67.83;;;8.40;99.90;;;;;;5044873;28;20653;-53
2022/12/22 16:15:57;;;;;;;41.83;32.80;;;8.40;99.90;;;;;;5046401;28;20272;-51
2022/12/22 16:18:25;;;;;;;123.67;52.07;;;8.40;99.90;;;;;;5050361;28;20663;-52
2022/12/22 16:20:57;;;;;;;40.20;32.40;;;8.40;99.90;;;;;;5049086;28;20218;-52
2022/12/22 16:23:27;;;;;;;261.13;105.03;;;8.40;99.90;;;;;;5049556;28;20317;-52
2022/12/22 16:25:57;;;;;;;26.63;20.93;;;8.40;99.90;;;;;;5048992;28;20235;-53
2022/12/22 16:28:30;;;;;;;108.90;40.57;;;8.40;99.90;;;;;;5050022;28;20576;-52